sensor_id;sensor_type;location;lat;lon;timestamp;temperature;humidity
10530;DHT22;5313;48.834;9.228;2023-01-28T00:02:24;1.20;99.90
10530;DHT22;5313;48.834;9.228;2023-01-28T00:04:49;1.20;99.90
10530;DHT22;5313;48.834;9.228;2023-01-28T00:07:16;1.20;99.90
10530;DHT22;5313;48.834;9.228;2023-01-28T00:09:41;1.20;99.90
10530;DHT22;5313;48.834;9.228;2023-01-28T00:12:07;1.20;99.90
10530;DHT22;5313;48.834;9.228;2023-01-28T00:14:32;1.20;99.90
10530;DHT22;5313;48.834;9.228;2023-01-28T00:16:58;1.20;99.90
10530;DHT22;5313;48.834;9.228;2023-01-28T00:19:23;1.20;99.90
10530;DHT22;5313;48.834;9.228;2023-01-28T00:21:49;1.20;99.90
10530;DHT22;5313;48.834;9.228;2023-01-28T00:24:14;1.10;99.90
10530;DHT22;5313;48.834;9.228;2023-01-28T00:26:40;1.10;99.90
10530;DHT22;5313;48.834;9.228;2023-01-28T00:29:06;1.20;99.90
10530;DHT22;5313;48.834;9.228;2023-01-28T00:31:31;1.20;99.90
10530;DHT22;5313;48.834;9.228;2023-01-28T00:33:58;1.20;99.90
10530;DHT22;5313;48.834;9.228;2023-01-28T00:36:25;1.20;99.90
10530;DHT22;5313;48.834;9.228;2023-01-28T00:38:56;1.20;99.90
10530;DHT22;5313;48.834;9.228;2023-01-28T00:41:23;1.20;99.90
10530;DHT22;5313;48.834;9.228;2023-01-28T00:43:50;1.20;99.90
10530;DHT22;5313;48.834;9.228;2023-01-28T00:46:16;1.20;99.90
10530;DHT22;5313;48.834;9.228;2023-01-28T00:48:43;1.10;99.90
10530;DHT22;5313;48.834;9.228;2023-01-28T00:51:11;1.10;99.90
10530;DHT22;5313;48.834;9.228;2023-01-28T00:53:37;1.20;99.90
10530;DHT22;5313;48.834;9.228;2023-01-28T00:56:05;1.20;99.90
10530;DHT22;5313;48.834;9.228;2023-01-28T00:58:31;1.10;99.90
10530;DHT22;5313;48.834;9.228;2023-01-28T01:01:15;1.10;99.90
10530;DHT22;5313;48.834;9.228;2023-01-28T01:03:41;1.10;99.90
10530;DHT22;5313;48.834;9.228;2023-01-28T01:06:08;1.10;99.90
10530;DHT22;5313;48.834;9.228;2023-01-28T01:08:34;1.10;99.90
10530;DHT22;5313;48.834;9.228;2023-01-28T01:11:01;1.10;99.90
10530;DHT22;5313;48.834;9.228;2023-01-28T01:13:27;1.20;99.90
10530;DHT22;5313;48.834;9.228;2023-01-28T01:18:32;1.20;99.90
10530;DHT22;5313;48.834;9.228;2023-01-28T01:20:59;1.20;99.90
10530;DHT22;5313;48.834;9.228;2023-01-28T01:23:26;1.30;99.90
10530;DHT22;5313;48.834;9.228;2023-01-28T01:25:52;1.20;99.90
10530;DHT22;5313;48.834;9.228;2023-01-28T01:28:17;1.20;99.90
10530;DHT22;5313;48.834;9.228;2023-01-28T01:30:43;1.20;99.90
10530;DHT22;5313;48.834;9.228;2023-01-28T01:33:08;1.30;99.90
10530;DHT22;5313;48.834;9.228;2023-01-28T01:35:34;1.30;99.90
10530;DHT22;5313;48.834;9.228;2023-01-28T01:37:59;1.30;99.90
10530;DHT22;5313;48.834;9.228;2023-01-28T01:40:25;1.30;99.90
10530;DHT22;5313;48.834;9.228;2023-01-28T01:42:54;1.30;99.90
10530;DHT22;5313;48.834;9.228;2023-01-28T01:45:19;1.30;99.90
10530;DHT22;5313;48.834;9.228;2023-01-28T01:47:56;1.30;99.90
10530;DHT22;5313;48.834;9.228;2023-01-28T01:50:53;1.30;99.90
10530;DHT22;5313;48.834;9.228;2023-01-28T01:53:21;1.30;99.90
10530;DHT22;5313;48.834;9.228;2023-01-28T01:55:49;1.30;99.90
10530;DHT22;5313;48.834;9.228;2023-01-28T01:58:18;1.30;99.90
10530;DHT22;5313;48.834;9.228;2023-01-28T02:00:45;1.30;99.90
10530;DHT22;5313;48.834;9.228;2023-01-28T02:03:11;1.30;99.90
10530;DHT22;5313;48.834;9.228;2023-01-28T02:05:37;1.30;99.90
10530;DHT22;5313;48.834;9.228;2023-01-28T02:08:03;1.30;99.90
10530;DHT22;5313;48.834;9.228;2023-01-28T02:10:57;1.30;99.90
10530;DHT22;5313;48.834;9.228;2023-01-28T02:13:29;1.30;99.90
10530;DHT22;5313;48.834;9.228;2023-01-28T02:15:58;1.20;99.90
10530;DHT22;5313;48.834;9.228;2023-01-28T02:18:24;1.30;99.90
10530;DHT22;5313;48.834;9.228;2023-01-28T02:32:18;1.20;99.90
10530;DHT22;5313;48.834;9.228;2023-01-28T02:35:02;1.20;99.90
10530;DHT22;5313;48.834;9.228;2023-01-28T02:37:39;1.20;99.90
10530;DHT22;5313;48.834;9.228;2023-01-28T02:40:15;1.20;99.90
10530;DHT22;5313;48.834;9.228;2023-01-28T02:42:44;1.20;99.90
10530;DHT22;5313;48.834;9.228;2023-01-28T02:45:20;1.10;99.90
10530;DHT22;5313;48.834;9.228;2023-01-28T02:47:45;1.20;99.90
10530;DHT22;5313;48.834;9.228;2023-01-28T02:50:29;1.20;99.90
10530;DHT22;5313;48.834;9.228;2023-01-28T02:56:34;1.30;99.90
10530;DHT22;5313;48.834;9.228;2023-01-28T02:59:29;1.30;99.90
10530;DHT22;5313;48.834;9.228;2023-01-28T03:02:20;1.30;99.90
10530;DHT22;5313;48.834;9.228;2023-01-28T03:07:34;1.20;99.90
10530;DHT22;5313;48.834;9.228;2023-01-28T03:10:05;1.30;99.90
10530;DHT22;5313;48.834;9.228;2023-01-28T03:12:32;1.20;99.90
10530;DHT22;5313;48.834;9.228;2023-01-28T03:15:19;1.30;99.90
10530;DHT22;5313;48.834;9.228;2023-01-28T03:18:21;1.40;99.90
10530;DHT22;5313;48.834;9.228;2023-01-28T03:24:04;1.20;99.90
10530;DHT22;5313;48.834;9.228;2023-01-28T03:29:46;1.20;99.90
10530;DHT22;5313;48.834;9.228;2023-01-28T03:32:31;1.10;99.90
10530;DHT22;5313;48.834;9.228;2023-01-28T03:35:19;1.10;99.90
10530;DHT22;5313;48.834;9.228;2023-01-28T03:38:06;1.10;99.90
10530;DHT22;5313;48.834;9.228;2023-01-28T03:41:01;1.10;99.90
10530;DHT22;5313;48.834;9.228;2023-01-28T03:43:28;1.10;99.90
10530;DHT22;5313;48.834;9.228;2023-01-28T03:45:54;2.40;99.90
10530;DHT22;5313;48.834;9.228;2023-01-28T03:48:22;1.10;99.90
10530;DHT22;5313;48.834;9.228;2023-01-28T03:50:48;1.20;99.90
10530;DHT22;5313;48.834;9.228;2023-01-28T03:53:18;1.10;99.90
10530;DHT22;5313;48.834;9.228;2023-01-28T03:55:45;1.20;99.90
10530;DHT22;5313;48.834;9.228;2023-01-28T03:58:11;1.20;99.90
10530;DHT22;5313;48.834;9.228;2023-01-28T04:00:38;1.20;99.90
10530;DHT22;5313;48.834;9.228;2023-01-28T04:03:10;1.10;99.90
10530;DHT22;5313;48.834;9.228;2023-01-28T04:08:22;1.10;99.90
10530;DHT22;5313;48.834;9.228;2023-01-28T04:10:49;1.10;99.90
10530;DHT22;5313;48.834;9.228;2023-01-28T04:13:14;1.10;99.90
10530;DHT22;5313;48.834;9.228;2023-01-28T04:15:41;1.20;99.90
10530;DHT22;5313;48.834;9.228;2023-01-28T04:18:08;1.20;99.90
10530;DHT22;5313;48.834;9.228;2023-01-28T04:20:33;1.10;99.90
10530;DHT22;5313;48.834;9.228;2023-01-28T04:22:59;1.20;99.90
10530;DHT22;5313;48.834;9.228;2023-01-28T04:25:25;1.30;99.90
10530;DHT22;5313;48.834;9.228;2023-01-28T04:27:50;1.20;99.90
10530;DHT22;5313;48.834;9.228;2023-01-28T04:30:16;1.20;99.90
10530;DHT22;5313;48.834;9.228;2023-01-28T04:32:42;1.10;99.90
10530;DHT22;5313;48.834;9.228;2023-01-28T04:35:07;1.10;99.90
10530;DHT22;5313;48.834;9.228;2023-01-28T04:37:33;1.10;99.90
10530;DHT22;5313;48.834;9.228;2023-01-28T04:39:58;1.10;99.90
10530;DHT22;5313;48.834;9.228;2023-01-28T04:42:24;1.10;99.90
10530;DHT22;5313;48.834;9.228;2023-01-28T04:44:49;1.10;99.90
10530;DHT22;5313;48.834;9.228;2023-01-28T04:47:15;1.10;99.90
10530;DHT22;5313;48.834;9.228;2023-01-28T04:49:40;1.20;99.90
10530;DHT22;5313;48.834;9.228;2023-01-28T04:52:06;1.20;99.90
10530;DHT22;5313;48.834;9.228;2023-01-28T04:54:31;1.20;99.90
10530;DHT22;5313;48.834;9.228;2023-01-28T04:56:57;1.20;99.90
10530;DHT22;5313;48.834;9.228;2023-01-28T04:59:23;1.30;99.90
10530;DHT22;5313;48.834;9.228;2023-01-28T05:01:48;1.30;99.90
10530;DHT22;5313;48.834;9.228;2023-01-28T05:04:14;1.20;99.90
10530;DHT22;5313;48.834;9.228;2023-01-28T05:06:41;1.10;99.90
10530;DHT22;5313;48.834;9.228;2023-01-28T05:09:07;1.20;99.90
10530;DHT22;5313;48.834;9.228;2023-01-28T05:11:32;1.10;99.90
10530;DHT22;5313;48.834;9.228;2023-01-28T05:13:58;1.10;99.90
10530;DHT22;5313;48.834;9.228;2023-01-28T05:16:23;1.10;99.90
10530;DHT22;5313;48.834;9.228;2023-01-28T05:18:49;1.10;99.90
10530;DHT22;5313;48.834;9.228;2023-01-28T05:21:16;1.10;99.90
10530;DHT22;5313;48.834;9.228;2023-01-28T05:23:42;1.10;99.90
10530;DHT22;5313;48.834;9.228;2023-01-28T05:26:08;1.10;99.90
10530;DHT22;5313;48.834;9.228;2023-01-28T05:28:34;1.10;99.90
10530;DHT22;5313;48.834;9.228;2023-01-28T05:31:04;1.00;99.90
10530;DHT22;5313;48.834;9.228;2023-01-28T05:33:30;1.00;99.90
10530;DHT22;5313;48.834;9.228;2023-01-28T05:35:56;1.10;99.90
10530;DHT22;5313;48.834;9.228;2023-01-28T05:38:21;1.00;99.90
10530;DHT22;5313;48.834;9.228;2023-01-28T05:40:47;1.00;99.90
10530;DHT22;5313;48.834;9.228;2023-01-28T05:43:13;1.00;99.90
10530;DHT22;5313;48.834;9.228;2023-01-28T05:45:38;1.00;99.90
10530;DHT22;5313;48.834;9.228;2023-01-28T05:48:04;1.00;99.90
10530;DHT22;5313;48.834;9.228;2023-01-28T05:50:30;1.00;99.90
10530;DHT22;5313;48.834;9.228;2023-01-28T05:52:55;1.00;99.90
10530;DHT22;5313;48.834;9.228;2023-01-28T05:55:21;1.00;99.90
10530;DHT22;5313;48.834;9.228;2023-01-28T05:57:47;1.00;99.90
10530;DHT22;5313;48.834;9.228;2023-01-28T06:00:13;1.00;99.90
10530;DHT22;5313;48.834;9.228;2023-01-28T06:02:40;1.00;99.90
10530;DHT22;5313;48.834;9.228;2023-01-28T06:05:06;1.10;99.90
10530;DHT22;5313;48.834;9.228;2023-01-28T06:07:32;1.00;99.90
10530;DHT22;5313;48.834;9.228;2023-01-28T06:09:58;1.10;99.90
10530;DHT22;5313;48.834;9.228;2023-01-28T06:12:23;1.10;99.90
10530;DHT22;5313;48.834;9.228;2023-01-28T06:14:49;1.10;99.90
10530;DHT22;5313;48.834;9.228;2023-01-28T06:17:14;1.10;99.90
10530;DHT22;5313;48.834;9.228;2023-01-28T06:19:40;1.20;99.90
10530;DHT22;5313;48.834;9.228;2023-01-28T06:22:05;1.20;99.90
10530;DHT22;5313;48.834;9.228;2023-01-28T06:24:31;1.20;99.90
10530;DHT22;5313;48.834;9.228;2023-01-28T06:26:57;1.20;99.90
10530;DHT22;5313;48.834;9.228;2023-01-28T06:29:22;1.20;99.90
10530;DHT22;5313;48.834;9.228;2023-01-28T06:31:48;1.20;99.90
10530;DHT22;5313;48.834;9.228;2023-01-28T06:34:13;1.30;99.90
10530;DHT22;5313;48.834;9.228;2023-01-28T06:36:39;1.30;99.90
10530;DHT22;5313;48.834;9.228;2023-01-28T06:39:05;1.40;99.90
10530;DHT22;5313;48.834;9.228;2023-01-28T06:41:31;1.50;99.90
10530;DHT22;5313;48.834;9.228;2023-01-28T06:43:56;1.40;99.90
10530;DHT22;5313;48.834;9.228;2023-01-28T06:46:23;1.40;99.90
10530;DHT22;5313;48.834;9.228;2023-01-28T06:48:49;1.40;99.90
10530;DHT22;5313;48.834;9.228;2023-01-28T06:51:14;1.40;99.90
10530;DHT22;5313;48.834;9.228;2023-01-28T06:53:40;1.40;99.90
10530;DHT22;5313;48.834;9.228;2023-01-28T06:56:06;1.40;99.90
10530;DHT22;5313;48.834;9.228;2023-01-28T06:58:33;1.40;99.90
10530;DHT22;5313;48.834;9.228;2023-01-28T07:00:59;1.40;99.90
10530;DHT22;5313;48.834;9.228;2023-01-28T07:03:25;1.40;99.90
10530;DHT22;5313;48.834;9.228;2023-01-28T07:05:51;1.40;99.90
10530;DHT22;5313;48.834;9.228;2023-01-28T07:08:16;1.40;99.90
10530;DHT22;5313;48.834;9.228;2023-01-28T07:10:42;1.40;99.90
10530;DHT22;5313;48.834;9.228;2023-01-28T07:13:08;1.40;99.90
10530;DHT22;5313;48.834;9.228;2023-01-28T07:15:34;1.40;99.90
10530;DHT22;5313;48.834;9.228;2023-01-28T07:17:59;1.30;99.90
10530;DHT22;5313;48.834;9.228;2023-01-28T07:20:25;1.40;99.90
10530;DHT22;5313;48.834;9.228;2023-01-28T07:22:50;1.30;99.90
10530;DHT22;5313;48.834;9.228;2023-01-28T07:25:16;1.30;99.90
10530;DHT22;5313;48.834;9.228;2023-01-28T07:27:49;1.30;99.90
10530;DHT22;5313;48.834;9.228;2023-01-28T07:30:16;1.30;99.90
10530;DHT22;5313;48.834;9.228;2023-01-28T07:32:45;1.30;99.90
10530;DHT22;5313;48.834;9.228;2023-01-28T07:35:11;1.30;99.90
10530;DHT22;5313;48.834;9.228;2023-01-28T07:37:37;1.40;99.90
10530;DHT22;5313;48.834;9.228;2023-01-28T07:40:03;1.40;99.90
10530;DHT22;5313;48.834;9.228;2023-01-28T07:42:29;1.30;99.90
10530;DHT22;5313;48.834;9.228;2023-01-28T07:44:54;1.40;99.90
10530;DHT22;5313;48.834;9.228;2023-01-28T07:47:20;1.40;99.90
10530;DHT22;5313;48.834;9.228;2023-01-28T07:49:45;1.40;99.90
10530;DHT22;5313;48.834;9.228;2023-01-28T07:52:12;1.30;99.90
10530;DHT22;5313;48.834;9.228;2023-01-28T07:54:37;1.40;99.90
10530;DHT22;5313;48.834;9.228;2023-01-28T07:57:06;1.30;99.90
10530;DHT22;5313;48.834;9.228;2023-01-28T07:59:34;1.30;99.90
10530;DHT22;5313;48.834;9.228;2023-01-28T08:01:59;1.40;99.90
10530;DHT22;5313;48.834;9.228;2023-01-28T08:04:25;1.40;99.90
10530;DHT22;5313;48.834;9.228;2023-01-28T08:06:51;1.50;99.90
10530;DHT22;5313;48.834;9.228;2023-01-28T08:09:16;1.60;99.90
10530;DHT22;5313;48.834;9.228;2023-01-28T08:11:42;1.60;99.90
10530;DHT22;5313;48.834;9.228;2023-01-28T08:14:09;1.70;99.90
10530;DHT22;5313;48.834;9.228;2023-01-28T08:16:35;1.70;99.90
10530;DHT22;5313;48.834;9.228;2023-01-28T08:19:00;1.70;99.90
10530;DHT22;5313;48.834;9.228;2023-01-28T08:21:27;1.80;99.90
10530;DHT22;5313;48.834;9.228;2023-01-28T08:23:52;1.80;99.90
10530;DHT22;5313;48.834;9.228;2023-01-28T08:26:19;1.80;99.90
10530;DHT22;5313;48.834;9.228;2023-01-28T08:28:44;1.80;99.90
10530;DHT22;5313;48.834;9.228;2023-01-28T08:31:10;1.80;99.90
10530;DHT22;5313;48.834;9.228;2023-01-28T08:33:35;1.80;99.90
10530;DHT22;5313;48.834;9.228;2023-01-28T08:36:04;1.70;99.90
10530;DHT22;5313;48.834;9.228;2023-01-28T08:38:30;1.80;99.90
10530;DHT22;5313;48.834;9.228;2023-01-28T08:40:56;1.80;99.90
10530;DHT22;5313;48.834;9.228;2023-01-28T08:43:23;1.80;99.90
10530;DHT22;5313;48.834;9.228;2023-01-28T08:45:48;1.90;99.90
10530;DHT22;5313;48.834;9.228;2023-01-28T08:48:16;1.90;99.90
10530;DHT22;5313;48.834;9.228;2023-01-28T08:50:42;1.90;99.90
10530;DHT22;5313;48.834;9.228;2023-01-28T08:53:14;1.90;99.90
10530;DHT22;5313;48.834;9.228;2023-01-28T08:55:40;1.90;99.90
10530;DHT22;5313;48.834;9.228;2023-01-28T08:58:09;2.00;99.90
10530;DHT22;5313;48.834;9.228;2023-01-28T09:00:35;2.00;99.90
10530;DHT22;5313;48.834;9.228;2023-01-28T09:03:01;2.10;99.90
10530;DHT22;5313;48.834;9.228;2023-01-28T09:05:26;2.10;99.90
10530;DHT22;5313;48.834;9.228;2023-01-28T09:07:52;2.10;99.90
10530;DHT22;5313;48.834;9.228;2023-01-28T09:10:18;2.10;99.90
10530;DHT22;5313;48.834;9.228;2023-01-28T09:12:44;2.10;99.90
10530;DHT22;5313;48.834;9.228;2023-01-28T09:15:11;2.20;99.90
10530;DHT22;5313;48.834;9.228;2023-01-28T09:17:37;2.20;99.90
10530;DHT22;5313;48.834;9.228;2023-01-28T09:20:03;2.20;99.90
10530;DHT22;5313;48.834;9.228;2023-01-28T09:22:28;2.20;99.90
10530;DHT22;5313;48.834;9.228;2023-01-28T09:24:54;2.30;99.90
10530;DHT22;5313;48.834;9.228;2023-01-28T09:27:19;2.30;99.90
10530;DHT22;5313;48.834;9.228;2023-01-28T09:29:45;2.30;99.90
10530;DHT22;5313;48.834;9.228;2023-01-28T09:32:10;2.30;99.90
10530;DHT22;5313;48.834;9.228;2023-01-28T09:34:36;2.30;99.90
10530;DHT22;5313;48.834;9.228;2023-01-28T09:37:02;2.20;99.90
10530;DHT22;5313;48.834;9.228;2023-01-28T09:39:27;2.40;99.90
10530;DHT22;5313;48.834;9.228;2023-01-28T09:47:34;2.60;99.90
10530;DHT22;5313;48.834;9.228;2023-01-28T09:50:05;2.40;99.90
10530;DHT22;5313;48.834;9.228;2023-01-28T09:52:34;2.40;99.90
10530;DHT22;5313;48.834;9.228;2023-01-28T09:55:05;2.40;99.90
10530;DHT22;5313;48.834;9.228;2023-01-28T09:57:38;2.40;99.90
10530;DHT22;5313;48.834;9.228;2023-01-28T10:00:14;2.50;99.90
10530;DHT22;5313;48.834;9.228;2023-01-28T10:02:55;2.50;99.90
10530;DHT22;5313;48.834;9.228;2023-01-28T10:11:22;2.40;99.90
10530;DHT22;5313;48.834;9.228;2023-01-28T10:14:32;2.40;99.90
10530;DHT22;5313;48.834;9.228;2023-01-28T10:16:56;2.40;99.90
10530;DHT22;5313;48.834;9.228;2023-01-28T10:19:29;2.40;99.90
10530;DHT22;5313;48.834;9.228;2023-01-28T10:22:04;2.40;99.90
10530;DHT22;5313;48.834;9.228;2023-01-28T10:27:00;2.30;99.90
10530;DHT22;5313;48.834;9.228;2023-01-28T10:29:28;2.40;99.90
10530;DHT22;5313;48.834;9.228;2023-01-28T10:32:05;2.30;99.90
10530;DHT22;5313;48.834;9.228;2023-01-28T10:34:37;2.30;99.90
10530;DHT22;5313;48.834;9.228;2023-01-28T10:37:03;2.30;99.90
10530;DHT22;5313;48.834;9.228;2023-01-28T10:39:28;2.40;99.90
10530;DHT22;5313;48.834;9.228;2023-01-28T10:41:54;2.40;99.90
10530;DHT22;5313;48.834;9.228;2023-01-28T10:44:36;2.40;99.90
10530;DHT22;5313;48.834;9.228;2023-01-28T10:47:13;2.50;99.90
10530;DHT22;5313;48.834;9.228;2023-01-28T10:49:52;2.50;99.90
10530;DHT22;5313;48.834;9.228;2023-01-28T10:52:19;2.50;99.90
10530;DHT22;5313;48.834;9.228;2023-01-28T10:54:44;2.50;99.90
10530;DHT22;5313;48.834;9.228;2023-01-28T10:57:12;2.60;99.90
10530;DHT22;5313;48.834;9.228;2023-01-28T10:59:41;2.70;99.90
10530;DHT22;5313;48.834;9.228;2023-01-28T11:02:32;2.70;99.90
10530;DHT22;5313;48.834;9.228;2023-01-28T11:05:19;2.80;99.90
10530;DHT22;5313;48.834;9.228;2023-01-28T11:07:46;2.70;99.90
10530;DHT22;5313;48.834;9.228;2023-01-28T11:10:31;2.70;99.90
10530;DHT22;5313;48.834;9.228;2023-01-28T11:12:59;2.70;99.90
10530;DHT22;5313;48.834;9.228;2023-01-28T11:15:25;2.70;99.90
10530;DHT22;5313;48.834;9.228;2023-01-28T11:18:03;2.80;99.90
10530;DHT22;5313;48.834;9.228;2023-01-28T11:20:41;2.70;99.90
10530;DHT22;5313;48.834;9.228;2023-01-28T11:23:18;2.70;99.90
10530;DHT22;5313;48.834;9.228;2023-01-28T11:25:45;2.80;99.90
10530;DHT22;5313;48.834;9.228;2023-01-28T11:28:19;2.70;99.90
10530;DHT22;5313;48.834;9.228;2023-01-28T11:30:51;2.60;99.90
10530;DHT22;5313;48.834;9.228;2023-01-28T11:33:18;2.70;99.90
10530;DHT22;5313;48.834;9.228;2023-01-28T11:38:32;2.80;99.90
10530;DHT22;5313;48.834;9.228;2023-01-28T11:40:59;2.80;99.90
10530;DHT22;5313;48.834;9.228;2023-01-28T11:43:29;2.70;99.90
10530;DHT22;5313;48.834;9.228;2023-01-28T11:51:44;2.60;99.90
10530;DHT22;5313;48.834;9.228;2023-01-28T11:54:26;2.60;99.90
10530;DHT22;5313;48.834;9.228;2023-01-28T12:03:04;2.70;99.90
10530;DHT22;5313;48.834;9.228;2023-01-28T12:05:57;2.70;99.90
10530;DHT22;5313;48.834;9.228;2023-01-28T12:08:43;2.60;99.90
10530;DHT22;5313;48.834;9.228;2023-01-28T12:11:21;2.70;99.90
10530;DHT22;5313;48.834;9.228;2023-01-28T12:14:32;2.70;99.90
10530;DHT22;5313;48.834;9.228;2023-01-28T12:17:23;2.60;99.90
10530;DHT22;5313;48.834;9.228;2023-01-28T12:20:07;2.50;99.90
10530;DHT22;5313;48.834;9.228;2023-01-28T12:26:14;2.60;99.90
10530;DHT22;5313;48.834;9.228;2023-01-28T12:42:19;2.60;99.90
10530;DHT22;5313;48.834;9.228;2023-01-28T12:44:53;2.60;99.90
10530;DHT22;5313;48.834;9.228;2023-01-28T12:47:34;2.50;99.90
10530;DHT22;5313;48.834;9.228;2023-01-28T12:50:17;2.50;99.90
10530;DHT22;5313;48.834;9.228;2023-01-28T12:53:00;2.30;99.90
10530;DHT22;5313;48.834;9.228;2023-01-28T12:55:46;2.20;99.90
10530;DHT22;5313;48.834;9.228;2023-01-28T12:58:23;2.20;99.90
10530;DHT22;5313;48.834;9.228;2023-01-28T13:00:58;2.20;99.90
10530;DHT22;5313;48.834;9.228;2023-01-28T13:03:39;2.10;99.90
10530;DHT22;5313;48.834;9.228;2023-01-28T13:06:18;2.10;99.90
10530;DHT22;5313;48.834;9.228;2023-01-28T13:08:47;2.10;99.90
10530;DHT22;5313;48.834;9.228;2023-01-28T13:11:16;2.20;99.90
10530;DHT22;5313;48.834;9.228;2023-01-28T13:13:44;2.30;99.90
10530;DHT22;5313;48.834;9.228;2023-01-28T13:16:11;2.20;99.90
10530;DHT22;5313;48.834;9.228;2023-01-28T13:23:51;2.20;99.90
10530;DHT22;5313;48.834;9.228;2023-01-28T13:29:20;2.30;99.90
10530;DHT22;5313;48.834;9.228;2023-01-28T13:31:48;2.20;99.90
10530;DHT22;5313;48.834;9.228;2023-01-28T13:37:00;2.20;99.90
10530;DHT22;5313;48.834;9.228;2023-01-28T13:39:28;2.20;99.90
10530;DHT22;5313;48.834;9.228;2023-01-28T13:42:08;2.10;99.90
10530;DHT22;5313;48.834;9.228;2023-01-28T13:44:36;2.10;99.90
10530;DHT22;5313;48.834;9.228;2023-01-28T13:52:05;2.20;99.90
10530;DHT22;5313;48.834;9.228;2023-01-28T13:54:37;2.30;99.90
10530;DHT22;5313;48.834;9.228;2023-01-28T14:06:30;2.30;99.90
10530;DHT22;5313;48.834;9.228;2023-01-28T14:15:06;2.30;99.90
10530;DHT22;5313;48.834;9.228;2023-01-28T14:17:51;2.30;99.90
10530;DHT22;5313;48.834;9.228;2023-01-28T14:23:02;2.40;99.90
10530;DHT22;5313;48.834;9.228;2023-01-28T14:31:07;2.30;99.90
10530;DHT22;5313;48.834;9.228;2023-01-28T14:33:35;2.30;99.90
10530;DHT22;5313;48.834;9.228;2023-01-28T14:36:01;2.30;99.90
10530;DHT22;5313;48.834;9.228;2023-01-28T14:38:27;2.30;99.90
10530;DHT22;5313;48.834;9.228;2023-01-28T14:40:54;2.40;99.90
10530;DHT22;5313;48.834;9.228;2023-01-28T14:43:25;2.30;99.90
10530;DHT22;5313;48.834;9.228;2023-01-28T14:46:18;2.30;99.90
10530;DHT22;5313;48.834;9.228;2023-01-28T14:49:15;2.30;99.90
10530;DHT22;5313;48.834;9.228;2023-01-28T14:52:09;2.40;99.90
10530;DHT22;5313;48.834;9.228;2023-01-28T14:55:33;2.40;99.90
10530;DHT22;5313;48.834;9.228;2023-01-28T14:58:05;2.40;99.90
10530;DHT22;5313;48.834;9.228;2023-01-28T15:00:34;2.40;99.90
10530;DHT22;5313;48.834;9.228;2023-01-28T15:02:59;2.40;99.90
10530;DHT22;5313;48.834;9.228;2023-01-28T15:05:26;2.40;99.90
10530;DHT22;5313;48.834;9.228;2023-01-28T15:07:53;2.50;99.90
10530;DHT22;5313;48.834;9.228;2023-01-28T15:10:30;2.50;99.90
10530;DHT22;5313;48.834;9.228;2023-01-28T15:12:58;2.50;99.90
10530;DHT22;5313;48.834;9.228;2023-01-28T15:15:34;2.50;99.90
10530;DHT22;5313;48.834;9.228;2023-01-28T15:18:16;2.50;99.90
10530;DHT22;5313;48.834;9.228;2023-01-28T15:20:48;2.50;99.90
10530;DHT22;5313;48.834;9.228;2023-01-28T15:23:16;2.50;99.90
10530;DHT22;5313;48.834;9.228;2023-01-28T15:25:43;2.50;99.90
10530;DHT22;5313;48.834;9.228;2023-01-28T15:28:16;2.40;99.90
10530;DHT22;5313;48.834;9.228;2023-01-28T15:30:45;2.40;99.90
10530;DHT22;5313;48.834;9.228;2023-01-28T15:33:14;2.30;99.90
10530;DHT22;5313;48.834;9.228;2023-01-28T15:35:52;2.30;99.90
10530;DHT22;5313;48.834;9.228;2023-01-28T15:38:18;2.30;99.90
10530;DHT22;5313;48.834;9.228;2023-01-28T15:40:47;2.30;99.90
10530;DHT22;5313;48.834;9.228;2023-01-28T15:43:23;2.30;99.90
10530;DHT22;5313;48.834;9.228;2023-01-28T15:45:52;2.30;99.90
10530;DHT22;5313;48.834;9.228;2023-01-28T15:48:21;2.30;99.90
10530;DHT22;5313;48.834;9.228;2023-01-28T15:53:31;2.30;99.90
10530;DHT22;5313;48.834;9.228;2023-01-28T16:01:32;2.30;99.90
10530;DHT22;5313;48.834;9.228;2023-01-28T16:05:39;2.30;99.90
10530;DHT22;5313;48.834;9.228;2023-01-28T16:07:45;2.20;99.90
10530;DHT22;5313;48.834;9.228;2023-01-28T16:11:07;2.20;99.90
10530;DHT22;5313;48.834;9.228;2023-01-28T16:24:27;2.20;99.90
10530;DHT22;5313;48.834;9.228;2023-01-28T16:27:44;2.10;99.90
10530;DHT22;5313;48.834;9.228;2023-01-28T16:33:56;2.10;99.90
10530;DHT22;5313;48.834;9.228;2023-01-28T16:36:21;1.60;99.90
10530;DHT22;5313;48.834;9.228;2023-01-28T16:38:47;1.60;99.90
10530;DHT22;5313;48.834;9.228;2023-01-28T16:41:42;2.00;99.90
10530;DHT22;5313;48.834;9.228;2023-01-28T16:44:12;2.00;99.90
10530;DHT22;5313;48.834;9.228;2023-01-28T16:46:38;1.50;99.90
10530;DHT22;5313;48.834;9.228;2023-01-28T16:49:03;1.50;99.90
10530;DHT22;5313;48.834;9.228;2023-01-28T16:51:29;1.50;99.90
10530;DHT22;5313;48.834;9.228;2023-01-28T16:53:55;1.50;99.90
10530;DHT22;5313;48.834;9.228;2023-01-28T16:56:23;1.50;99.90
10530;DHT22;5313;48.834;9.228;2023-01-28T16:58:50;1.50;99.90
10530;DHT22;5313;48.834;9.228;2023-01-28T17:01:15;1.90;99.90
10530;DHT22;5313;48.834;9.228;2023-01-28T17:03:41;2.00;99.90
10530;DHT22;5313;48.834;9.228;2023-01-28T17:06:08;1.50;99.90
10530;DHT22;5313;48.834;9.228;2023-01-28T17:08:35;1.70;99.90
10530;DHT22;5313;48.834;9.228;2023-01-28T17:11:01;1.50;99.90
10530;DHT22;5313;48.834;9.228;2023-01-28T17:13:26;2.00;99.90
10530;DHT22;5313;48.834;9.228;2023-01-28T17:15:52;2.90;99.90
10530;DHT22;5313;48.834;9.228;2023-01-28T17:18:18;2.00;99.90
10530;DHT22;5313;48.834;9.228;2023-01-28T17:20:43;2.00;99.90
10530;DHT22;5313;48.834;9.228;2023-01-28T17:23:13;1.60;99.90
10530;DHT22;5313;48.834;9.228;2023-01-28T17:25:41;1.90;99.90
10530;DHT22;5313;48.834;9.228;2023-01-28T17:28:08;1.90;99.90
10530;DHT22;5313;48.834;9.228;2023-01-28T17:30:34;1.90;99.90
10530;DHT22;5313;48.834;9.228;2023-01-28T17:33:02;1.70;99.90
10530;DHT22;5313;48.834;9.228;2023-01-28T17:35:28;2.10;99.90
10530;DHT22;5313;48.834;9.228;2023-01-28T17:37:55;1.70;99.90
10530;DHT22;5313;48.834;9.228;2023-01-28T17:40:22;1.60;99.90
10530;DHT22;5313;48.834;9.228;2023-01-28T17:42:48;1.60;99.90
10530;DHT22;5313;48.834;9.228;2023-01-28T17:45:14;4.90;99.90
10530;DHT22;5313;48.834;9.228;2023-01-28T17:47:39;3.30;99.90
10530;DHT22;5313;48.834;9.228;2023-01-28T17:50:05;2.00;99.90
10530;DHT22;5313;48.834;9.228;2023-01-28T17:52:31;2.00;99.90
10530;DHT22;5313;48.834;9.228;2023-01-28T17:54:56;1.80;99.90
10530;DHT22;5313;48.834;9.228;2023-01-28T17:57:22;1.90;99.90
10530;DHT22;5313;48.834;9.228;2023-01-28T17:59:48;2.00;99.90
10530;DHT22;5313;48.834;9.228;2023-01-28T18:02:15;1.50;99.90
10530;DHT22;5313;48.834;9.228;2023-01-28T18:04:41;1.80;99.90
10530;DHT22;5313;48.834;9.228;2023-01-28T18:07:08;1.80;99.90
10530;DHT22;5313;48.834;9.228;2023-01-28T18:09:41;1.80;99.90
10530;DHT22;5313;48.834;9.228;2023-01-28T18:12:09;1.50;99.90
10530;DHT22;5313;48.834;9.228;2023-01-28T18:14:36;1.80;99.90
10530;DHT22;5313;48.834;9.228;2023-01-28T18:17:03;1.90;99.90
10530;DHT22;5313;48.834;9.228;2023-01-28T18:19:29;1.90;99.90
10530;DHT22;5313;48.834;9.228;2023-01-28T18:21:54;1.80;99.90
10530;DHT22;5313;48.834;9.228;2023-01-28T18:24:22;1.80;99.90
10530;DHT22;5313;48.834;9.228;2023-01-28T18:26:49;1.80;99.90
10530;DHT22;5313;48.834;9.228;2023-01-28T18:29:15;1.80;99.90
10530;DHT22;5313;48.834;9.228;2023-01-28T18:31:47;1.70;99.90
10530;DHT22;5313;48.834;9.228;2023-01-28T18:34:13;1.80;99.90
10530;DHT22;5313;48.834;9.228;2023-01-28T18:36:39;1.70;99.90
10530;DHT22;5313;48.834;9.228;2023-01-28T18:39:04;1.70;99.90